Time;durP1;ratioP1;P1;durP2;ratioP2;P2;SDS_P1;SDS_P2;PMS_P1;PMS_P2;Temp;Humidity;BMP_temperature;BMP_pressure;BME280_temperature;BME280_humidity;BME280_pressure;Samples;Min_cycle;Max_cycle;Signal;HPM_P1;HPM_P2
2023/12/06 00:01:51;;;;;;;2.63;2.20;;;22.00;65.20;;;;;;4986169;28;20467;-66
2023/12/06 00:04:19;;;;;;;2.30;2.00;;;22.00;65.40;;;;;;4983469;28;20468;-66
2023/12/06 00:06:45;;;;;;;2.90;2.00;;;22.00;65.30;;;;;;4981979;28;20495;-65
2023/12/06 00:09:12;;;;;;;4.20;1.77;;;22.00;65.40;;;;;;4987145;28;20471;-65
2023/12/06 00:11:39;;;;;;;2.77;2.47;;;22.00;65.50;;;;;;4980348;28;21407;-65
2023/12/06 00:14:06;;;;;;;2.87;2.67;;;22.00;65.50;;;;;;4987649;28;20464;-65
2023/12/06 00:16:33;;;;;;;2.63;2.30;;;22.00;65.60;;;;;;4982405;28;20503;-60
2023/12/06 00:18:59;;;;;;;2.33;2.13;;;22.00;65.70;;;;;;4978776;28;20465;-59
2023/12/06 00:21:27;;;;;;;3.03;2.00;;;22.10;65.70;;;;;;4979279;28;20546;-65
2023/12/06 00:23:54;;;;;;;2.90;2.03;;;22.10;65.70;;;;;;4981823;28;20463;-61
2023/12/06 00:26:21;;;;;;;2.10;1.80;;;22.10;65.80;;;;;;4983585;28;20491;-63
2023/12/06 00:28:48;;;;;;;3.50;2.70;;;22.10;65.70;;;;;;4980158;28;20469;-64
2023/12/06 00:31:15;;;;;;;2.47;1.97;;;22.10;66.00;;;;;;4982812;28;20549;-63
2023/12/06 00:33:42;;;;;;;2.03;1.60;;;22.10;65.80;;;;;;4982006;28;20498;-63
2023/12/06 00:36:09;;;;;;;2.33;2.13;;;22.10;65.90;;;;;;4985836;28;20463;-63
2023/12/06 00:38:37;;;;;;;2.83;2.30;;;22.10;65.90;;;;;;4985511;28;20519;-64
2023/12/06 00:41:04;;;;;;;2.77;2.00;;;22.10;65.90;;;;;;4975090;28;20464;-63
2023/12/06 00:43:30;;;;;;;3.20;1.97;;;22.10;66.00;;;;;;4981636;28;20499;-63
2023/12/06 00:45:57;;;;;;;2.37;1.90;;;22.10;65.90;;;;;;4982768;28;20527;-63
2023/12/06 00:48:24;;;;;;;2.20;1.80;;;22.10;65.90;;;;;;4982839;28;20468;-63
2023/12/06 00:50:50;;;;;;;2.20;2.00;;;22.10;66.10;;;;;;4980888;28;20519;-64
2023/12/06 00:53:17;;;;;;;2.00;1.90;;;22.10;66.10;;;;;;4984185;28;20550;-60
2023/12/06 00:55:45;;;;;;;2.13;1.70;;;22.10;66.00;;;;;;4984958;28;20996;-63
2023/12/06 00:58:12;;;;;;;2.10;1.90;;;22.10;66.20;;;;;;4979722;28;20514;-63
2023/12/06 01:00:39;;;;;;;2.00;1.80;;;22.10;66.20;;;;;;4990592;28;20491;-63
2023/12/06 01:03:05;;;;;;;1.87;1.63;;;22.10;66.20;;;;;;4987543;28;20467;-63
2023/12/06 01:05:32;;;;;;;2.30;2.10;;;22.10;66.30;;;;;;4987733;28;20470;-63
2023/12/06 01:07:59;;;;;;;2.33;1.83;;;22.10;66.30;;;;;;4987439;28;21300;-63
2023/12/06 01:10:25;;;;;;;2.93;2.20;;;22.10;66.30;;;;;;4986556;28;21145;-63
2023/12/06 01:12:53;;;;;;;1.87;1.50;;;22.00;66.30;;;;;;4985106;28;20459;-63
2023/12/06 01:15:20;;;;;;;2.83;2.00;;;22.00;66.30;;;;;;4986647;28;20463;-63
2023/12/06 01:17:47;;;;;;;2.13;1.80;;;22.00;66.40;;;;;;4983203;28;20478;-63
2023/12/06 01:20:13;;;;;;;2.00;1.80;;;22.00;66.40;;;;;;4991065;28;20474;-63
2023/12/06 01:22:40;;;;;;;2.27;2.07;;;22.00;66.40;;;;;;4990602;28;20522;-63
2023/12/06 01:25:07;;;;;;;1.83;1.40;;;22.00;66.50;;;;;;4991648;28;20462;-63
2023/12/06 01:27:35;;;;;;;2.53;2.00;;;22.00;66.50;;;;;;4984766;28;20496;-63
2023/12/06 01:30:03;;;;;;;2.17;1.97;;;22.00;66.60;;;;;;4989564;28;20502;-62
2023/12/06 01:32:30;;;;;;;3.43;2.57;;;22.00;66.70;;;;;;4985675;28;20761;-63
2023/12/06 01:34:57;;;;;;;2.03;1.70;;;21.90;66.60;;;;;;4989729;28;21114;-62
2023/12/06 01:37:23;;;;;;;2.40;1.80;;;21.90;66.60;;;;;;4986842;28;20606;-63
2023/12/06 01:39:50;;;;;;;2.07;1.70;;;21.90;66.60;;;;;;4987037;28;20549;-63
2023/12/06 01:42:17;;;;;;;3.27;1.77;;;21.90;66.70;;;;;;4989638;28;20490;-63
2023/12/06 01:44:44;;;;;;;2.80;2.20;;;21.90;66.80;;;;;;4986332;28;20456;-64
2023/12/06 01:47:12;;;;;;;1.80;1.70;;;21.90;66.80;;;;;;4986012;28;20490;-62
2023/12/06 01:49:39;;;;;;;2.13;2.00;;;21.90;66.80;;;;;;4986063;28;20467;-63
2023/12/06 01:52:07;;;;;;;2.03;1.83;;;21.90;66.80;;;;;;4989324;28;20519;-63
2023/12/06 01:54:33;;;;;;;2.53;2.17;;;21.90;67.00;;;;;;4990999;28;21440;-62
2023/12/06 01:57:00;;;;;;;2.73;2.53;;;21.80;66.80;;;;;;4982277;28;20475;-63
2023/12/06 01:59:28;;;;;;;2.30;2.00;;;21.80;66.80;;;;;;4989566;28;20464;-63
2023/12/06 02:01:55;;;;;;;2.20;1.93;;;21.80;66.90;;;;;;4984450;28;20459;-63
2023/12/06 02:04:23;;;;;;;2.07;1.40;;;21.80;66.90;;;;;;4983429;28;20467;-63
2023/12/06 02:06:50;;;;;;;1.83;1.70;;;21.80;67.00;;;;;;4987334;28;21553;-63
2023/12/06 02:09:16;;;;;;;2.00;1.80;;;21.80;67.10;;;;;;4986849;28;20456;-62
2023/12/06 02:11:43;;;;;;;1.83;1.73;;;21.80;67.10;;;;;;4980824;28;20468;-62
2023/12/06 02:14:10;;;;;;;3.37;2.33;;;21.80;67.10;;;;;;4988610;28;20461;-63
2023/12/06 02:16:37;;;;;;;2.73;1.70;;;21.70;67.10;;;;;;4985077;28;20502;-64
2023/12/06 02:19:04;;;;;;;1.63;1.53;;;21.70;67.10;;;;;;4985900;28;21138;-63
2023/12/06 02:21:32;;;;;;;1.50;1.40;;;21.70;67.20;;;;;;4988549;28;21092;-63
2023/12/06 02:24:00;;;;;;;2.67;1.80;;;21.70;67.20;;;;;;4988121;28;20845;-61
2023/12/06 02:26:28;;;;;;;1.97;1.73;;;21.70;67.20;;;;;;4990359;28;20609;-62
2023/12/06 02:28:55;;;;;;;1.57;1.43;;;21.70;67.30;;;;;;4984012;28;20502;-62
2023/12/06 02:31:22;;;;;;;2.10;1.53;;;21.70;67.30;;;;;;4986744;28;20463;-62
2023/12/06 02:33:51;;;;;;;1.87;1.70;;;21.70;67.30;;;;;;4990376;28;20471;-62
2023/12/06 02:36:19;;;;;;;2.23;2.00;;;21.70;67.30;;;;;;4979896;28;20994;-61
2023/12/06 02:38:47;;;;;;;2.40;1.90;;;21.70;67.50;;;;;;4986283;28;20459;-62
2023/12/06 02:41:16;;;;;;;1.67;1.43;;;21.60;67.30;;;;;;4978564;28;20460;-62
2023/12/06 02:43:44;;;;;;;2.00;1.80;;;21.60;67.30;;;;;;4980006;28;20464;-62
2023/12/06 02:46:11;;;;;;;1.57;1.33;;;21.60;67.40;;;;;;4983519;28;20466;-62
2023/12/06 02:48:38;;;;;;;1.97;1.60;;;21.60;67.40;;;;;;4985988;28;20470;-62
2023/12/06 02:51:05;;;;;;;2.00;1.83;;;21.60;67.50;;;;;;4980366;28;20468;-62
2023/12/06 02:53:31;;;;;;;1.53;1.43;;;21.60;67.50;;;;;;4983222;28;20460;-62
2023/12/06 02:55:58;;;;;;;1.73;1.53;;;21.60;67.60;;;;;;4987233;28;21263;-61
2023/12/06 02:58:25;;;;;;;2.23;2.03;;;21.60;67.60;;;;;;4986738;28;20469;-62
2023/12/06 03:00:53;;;;;;;2.07;1.80;;;21.60;67.60;;;;;;4980317;28;20518;-62
2023/12/06 03:03:19;;;;;;;2.00;1.80;;;21.60;67.70;;;;;;4981264;28;20499;-62
2023/12/06 03:05:46;;;;;;;2.83;2.00;;;21.50;67.60;;;;;;4980643;28;20463;-62
2023/12/06 03:08:14;;;;;;;3.30;2.20;;;21.50;67.70;;;;;;4982001;28;20480;-62
2023/12/06 03:10:40;;;;;;;1.73;1.43;;;21.50;67.60;;;;;;4979869;28;20964;-62
2023/12/06 03:13:07;;;;;;;1.70;1.60;;;21.50;67.70;;;;;;4979634;28;20464;-62
2023/12/06 03:15:34;;;;;;;2.30;2.00;;;21.50;67.60;;;;;;4988170;28;20460;-62
2023/12/06 03:18:02;;;;;;;2.50;1.83;;;21.50;67.60;;;;;;4987521;28;20470;-61
2023/12/06 03:20:28;;;;;;;1.97;1.40;;;21.50;67.70;;;;;;4983731;28;20539;-62
2023/12/06 03:22:55;;;;;;;1.77;1.40;;;21.50;67.70;;;;;;4981717;28;21012;-62
2023/12/06 03:25:22;;;;;;;1.73;1.63;;;21.50;67.80;;;;;;4986496;28;20494;-62
2023/12/06 03:27:48;;;;;;;1.90;1.70;;;21.50;67.90;;;;;;4986535;28;20557;-62
2023/12/06 03:30:15;;;;;;;1.73;1.63;;;21.50;67.80;;;;;;4986763;28;20499;-62
2023/12/06 03:32:43;;;;;;;2.30;1.90;;;21.50;67.80;;;;;;4985082;28;20468;-62
2023/12/06 03:35:11;;;;;;;2.00;1.60;;;21.40;67.80;;;;;;4986072;28;20475;-62
2023/12/06 03:37:37;;;;;;;1.90;1.60;;;21.40;67.70;;;;;;4980838;28;20536;-61
2023/12/06 03:40:05;;;;;;;1.83;1.53;;;21.40;67.80;;;;;;4987680;28;20468;-61
2023/12/06 03:42:32;;;;;;;1.60;1.50;;;21.40;67.80;;;;;;4978247;28;20464;-62
2023/12/06 03:44:59;;;;;;;2.13;1.57;;;21.40;67.90;;;;;;4984932;28;20487;-62
2023/12/06 03:47:26;;;;;;;1.40;1.10;;;21.40;67.90;;;;;;4982650;28;20469;-62
2023/12/06 03:49:53;;;;;;;2.30;1.73;;;21.40;67.90;;;;;;4982970;28;20464;-62
2023/12/06 03:52:21;;;;;;;1.77;1.53;;;21.40;67.90;;;;;;4984486;28;20809;-62
2023/12/06 03:54:48;;;;;;;1.40;1.30;;;21.40;67.90;;;;;;4984416;28;20550;-61
2023/12/06 03:57:15;;;;;;;1.70;1.57;;;21.40;68.00;;;;;;4974693;28;20463;-62
2023/12/06 03:59:42;;;;;;;1.97;1.87;;;21.40;68.00;;;;;;4981216;28;20966;-62
2023/12/06 04:02:08;;;;;;;2.37;2.17;;;21.40;68.00;;;;;;4986322;28;20474;-62
2023/12/06 04:04:35;;;;;;;1.87;1.70;;;21.40;68.00;;;;;;4986717;28;20467;-62
2023/12/06 04:07:02;;;;;;;1.40;1.30;;;21.30;67.90;;;;;;4986096;28;20842;-62
2023/12/06 04:09:30;;;;;;;1.63;1.40;;;21.40;68.10;;;;;;4986857;28;20459;-61
2023/12/06 04:11:56;;;;;;;1.80;1.60;;;21.40;68.40;;;;;;4981501;28;21058;-61
2023/12/06 04:14:23;;;;;;;1.70;1.20;;;21.40;68.10;;;;;;4985773;28;20491;-62
2023/12/06 04:16:50;;;;;;;1.80;1.50;;;21.30;68.00;;;;;;4979415;28;22718;-62
2023/12/06 04:19:17;;;;;;;1.40;1.10;;;21.30;68.90;;;;;;4984561;28;20229;-62
2023/12/06 04:21:43;;;;;;;1.90;1.40;;;21.40;68.10;;;;;;4982658;28;20525;-62
2023/12/06 04:24:10;;;;;;;1.43;1.33;;;21.30;68.10;;;;;;4984869;28;20496;-63
2023/12/06 04:26:38;;;;;;;1.47;1.37;;;21.30;68.00;;;;;;4983310;28;20470;-63
2023/12/06 04:29:05;;;;;;;1.70;1.57;;;21.30;68.10;;;;;;4985643;28;20472;-63
2023/12/06 04:31:31;;;;;;;1.60;1.50;;;21.30;68.10;;;;;;4983848;28;20466;-63
2023/12/06 04:33:59;;;;;;;1.50;1.40;;;21.30;68.10;;;;;;4984129;28;20469;-62
2023/12/06 04:36:25;;;;;;;1.93;1.73;;;21.30;68.10;;;;;;4982034;28;20473;-63
2023/12/06 04:38:52;;;;;;;1.47;1.37;;;21.30;68.10;;;;;;4983957;28;21065;-63
2023/12/06 04:41:19;;;;;;;2.00;1.70;;;21.30;68.10;;;;;;4985073;28;20533;-62
2023/12/06 04:43:47;;;;;;;2.10;1.40;;;21.30;68.20;;;;;;4984122;28;20555;-62
2023/12/06 04:46:13;;;;;;;1.30;1.13;;;21.30;68.10;;;;;;4982536;28;20456;-63
2023/12/06 04:48:40;;;;;;;1.57;1.33;;;21.30;68.20;;;;;;4985695;28;20537;-63
2023/12/06 04:51:07;;;;;;;2.13;1.37;;;21.30;68.20;;;;;;4985316;28;20464;-62
2023/12/06 04:53:33;;;;;;;1.63;1.23;;;21.30;68.30;;;;;;4984808;28;20468;-63
2023/12/06 04:56:00;;;;;;;2.00;1.80;;;21.20;68.10;;;;;;4984159;28;20463;-63
2023/12/06 04:58:27;;;;;;;1.90;1.70;;;21.30;68.20;;;;;;4987027;28;20518;-62
2023/12/06 05:00:55;;;;;;;2.10;1.50;;;21.30;68.20;;;;;;4988011;28;20772;-63
2023/12/06 05:03:21;;;;;;;2.10;1.50;;;21.30;68.30;;;;;;4983399;28;20459;-63
2023/12/06 05:05:48;;;;;;;1.88;1.60;;;21.30;68.30;;;;;;4988195;28;20487;-63
2023/12/06 05:08:15;;;;;;;1.43;1.13;;;21.20;68.20;;;;;;4989720;28;20225;-63
2023/12/06 05:10:41;;;;;;;1.90;1.63;;;21.20;68.20;;;;;;4990092;28;20452;-62
2023/12/06 05:13:08;;;;;;;1.77;1.20;;;21.30;68.40;;;;;;4987903;28;20463;-62
2023/12/06 05:15:35;;;;;;;1.50;1.40;;;21.30;68.30;;;;;;4989235;28;20482;-63
2023/12/06 05:18:03;;;;;;;1.43;1.30;;;21.20;68.20;;;;;;4985339;28;20477;-63
2023/12/06 05:20:30;;;;;;;1.77;1.30;;;21.20;68.20;;;;;;4986305;28;20490;-63
2023/12/06 05:22:57;;;;;;;1.73;1.53;;;21.20;68.20;;;;;;4986484;28;20560;-63
2023/12/06 05:25:23;;;;;;;2.65;1.60;;;21.20;68.20;;;;;;4988661;28;20467;-62
2023/12/06 05:27:50;;;;;;;1.73;1.27;;;21.20;68.30;;;;;;4983473;28;20217;-62
2023/12/06 05:30:17;;;;;;;1.40;1.30;;;21.20;68.30;;;;;;4984955;28;20522;-63
2023/12/06 05:32:43;;;;;;;2.50;1.77;;;21.20;68.30;;;;;;4980942;28;20212;-63
2023/12/06 05:35:12;;;;;;;2.10;1.40;;;21.20;68.30;;;;;;4984365;28;21120;-63
2023/12/06 05:37:38;;;;;;;1.43;1.20;;;21.20;68.30;;;;;;4990882;28;21050;-62
2023/12/06 05:40:07;;;;;;;1.70;1.50;;;21.20;68.40;;;;;;4994360;28;20455;-63
2023/12/06 05:42:34;;;;;;;1.50;1.25;;;21.20;68.50;;;;;;4990660;28;20468;-63
2023/12/06 05:45:00;;;;;;;1.57;1.30;;;21.20;68.40;;;;;;4991738;28;20192;-63
2023/12/06 05:47:27;;;;;;;1.50;1.25;;;21.20;68.40;;;;;;4988511;28;20479;-63
2023/12/06 05:49:54;;;;;;;1.60;1.50;;;21.20;68.40;;;;;;4988091;28;20685;-63
2023/12/06 05:52:22;;;;;;;1.60;1.50;;;21.20;68.40;;;;;;4983262;28;20529;-63
2023/12/06 05:54:48;;;;;;;1.70;1.50;;;21.20;68.40;;;;;;4986149;28;20463;-63
2023/12/06 05:57:15;;;;;;;1.40;1.30;;;21.20;68.50;;;;;;4984167;28;20474;-63
2023/12/06 05:59:42;;;;;;;2.10;1.43;;;21.20;68.50;;;;;;4987847;28;20468;-63
2023/12/06 06:02:08;;;;;;;1.37;1.17;;;21.20;68.50;;;;;;4986835;28;20467;-63
2023/12/06 06:04:35;;;;;;;1.37;1.13;;;21.20;68.50;;;;;;4991330;28;20483;-63
2023/12/06 06:07:02;;;;;;;1.50;1.20;;;21.20;68.60;;;;;;4990520;28;20459;-63
2023/12/06 06:09:30;;;;;;;1.55;1.40;;;21.20;68.50;;;;;;4988359;28;20516;-63
2023/12/06 06:11:56;;;;;;;1.90;1.70;;;21.20;68.50;;;;;;4988247;28;20204;-63
2023/12/06 06:14:23;;;;;;;2.27;1.77;;;21.20;68.40;;;;;;4987029;28;20510;-63
2023/12/06 06:16:50;;;;;;;1.42;1.33;;;21.20;68.50;;;;;;4987834;28;20459;-62
2023/12/06 06:19:17;;;;;;;1.58;1.40;;;21.20;68.50;;;;;;4988544;28;20224;-63
2023/12/06 06:21:43;;;;;;;1.70;1.43;;;21.10;68.40;;;;;;4990254;28;20204;-64
2023/12/06 06:24:10;;;;;;;1.55;1.30;;;21.10;68.40;;;;;;4985857;28;20869;-61
2023/12/06 06:26:38;;;;;;;1.93;1.50;;;21.10;68.50;;;;;;4986724;28;20717;-62
2023/12/06 06:29:06;;;;;;;1.45;1.35;;;21.10;68.40;;;;;;4987062;28;20542;-63
2023/12/06 06:31:32;;;;;;;1.90;1.60;;;21.10;68.40;;;;;;4985944;28;20208;-63
2023/12/06 06:34:01;;;;;;;1.50;1.40;;;21.10;68.40;;;;;;4987249;28;20464;-62
2023/12/06 06:36:28;;;;;;;2.10;1.90;;;21.10;69.30;;;;;;4986979;28;20601;-63
2023/12/06 06:38:55;;;;;;;1.97;1.30;;;21.10;69.00;;;;;;4986693;28;20468;-63
2023/12/06 06:41:24;;;;;;;2.30;1.37;;;21.20;68.90;;;;;;4986634;28;20470;-63
2023/12/06 06:43:52;;;;;;;1.30;1.17;;;21.10;68.70;;;;;;4984724;28;20475;-63
2023/12/06 06:46:19;;;;;;;1.27;1.00;;;21.10;68.70;;;;;;4986913;28;20479;-63
2023/12/06 06:48:46;;;;;;;1.37;1.27;;;21.10;68.60;;;;;;4987999;28;20472;-63
2023/12/06 06:51:12;;;;;;;1.90;1.57;;;21.10;68.60;;;;;;4988946;28;20463;-60
2023/12/06 06:53:39;;;;;;;2.30;1.57;;;21.10;68.50;;;;;;4990015;28;20475;-63
2023/12/06 06:56:06;;;;;;;1.60;1.50;;;21.10;68.40;;;;;;4979552;28;20654;-62
2023/12/06 06:58:33;;;;;;;1.60;1.47;;;21.10;68.40;;;;;;4985413;28;20545;-61
2023/12/06 07:01:01;;;;;;;1.60;1.50;;;21.10;68.20;;;;;;4986317;28;20467;-62
2023/12/06 07:03:27;;;;;;;1.70;1.43;;;21.10;68.10;;;;;;4984120;28;20544;-63
2023/12/06 07:05:54;;;;;;;1.85;1.45;;;21.10;68.10;;;;;;4987696;28;20553;-56
2023/12/06 07:08:21;;;;;;;1.40;1.30;;;21.10;68.00;;;;;;4986615;28;20216;-63
2023/12/06 07:10:48;;;;;;;1.60;1.50;;;21.10;68.10;;;;;;4984690;28;20980;-63
2023/12/06 07:13:15;;;;;;;1.40;1.30;;;21.10;68.10;;;;;;4987280;28;20209;-61
2023/12/06 07:15:41;;;;;;;1.30;1.20;;;21.10;68.30;;;;;;4987991;28;20476;-63
2023/12/06 07:18:09;;;;;;;2.03;1.77;;;21.10;68.50;;;;;;4980218;28;20513;-58
2023/12/06 07:20:36;;;;;;;3.93;3.60;;;21.10;68.60;;;;;;4986520;28;20967;-59
2023/12/06 07:23:03;;;;;;;3.70;3.23;;;21.10;68.90;;;;;;4985229;28;20466;-64
2023/12/06 07:25:30;;;;;;;3.70;3.40;;;21.10;68.60;;;;;;4983365;28;20455;-60
2023/12/06 07:27:57;;;;;;;3.20;2.90;;;21.10;69.50;;;;;;4987333;28;20616;-64
2023/12/06 07:30:24;;;;;;;3.42;3.13;;;21.10;69.50;;;;;;4984009;28;20199;-63
2023/12/06 07:32:51;;;;;;;3.30;3.00;;;21.10;69.80;;;;;;4986393;28;20612;-63
2023/12/06 07:35:19;;;;;;;3.58;2.65;;;21.10;70.00;;;;;;4987376;28;20204;-63
2023/12/06 07:37:46;;;;;;;3.50;3.10;;;21.20;69.90;;;;;;4984514;28;20266;-57
2023/12/06 07:40:13;;;;;;;3.50;3.20;;;21.20;70.40;;;;;;4989643;28;20463;-60
2023/12/06 07:42:39;;;;;;;7.37;2.50;;;21.20;70.40;;;;;;4983054;28;20216;-61
2023/12/06 07:45:11;;;;;;;3.37;2.90;;;21.20;70.00;;;;;;4982800;28;20463;-58
2023/12/06 07:47:38;;;;;;;3.07;2.73;;;21.20;69.50;;;;;;4983465;28;20461;-60
2023/12/06 07:50:06;;;;;;;3.50;3.20;;;21.20;70.30;;;;;;4980394;28;20469;-60
2023/12/06 07:52:34;;;;;;;3.80;3.03;;;21.20;70.50;;;;;;4983746;28;20562;-58
2023/12/06 07:55:02;;;;;;;4.43;2.50;;;21.20;70.60;;;;;;4991052;28;21286;-59
2023/12/06 07:57:29;;;;;;;2.65;2.45;;;21.20;70.80;;;;;;4984455;28;20455;-61
2023/12/06 07:59:56;;;;;;;2.53;2.33;;;21.30;70.80;;;;;;4978161;28;20205;-54
2023/12/06 08:02:23;;;;;;;2.93;2.50;;;21.30;71.00;;;;;;4987107;28;20462;-62
2023/12/06 08:04:49;;;;;;;2.40;2.13;;;21.30;70.90;;;;;;4980842;28;20467;-59
2023/12/06 08:07:16;;;;;;;3.23;2.70;;;21.30;71.10;;;;;;4993657;28;20829;-55
2023/12/06 08:09:45;;;;;;;3.83;2.37;;;21.30;71.20;;;;;;4990402;28;20484;-61
2023/12/06 08:12:12;;;;;;;8.70;7.90;;;21.30;71.40;;;;;;4986986;28;20462;-62
2023/12/06 08:14:40;;;;;;;12.18;10.30;;;21.30;64.80;;;;;;4981896;28;20521;-61
2023/12/06 08:17:07;;;;;;;12.27;10.00;;;21.00;59.20;;;;;;4981208;28;20287;-63
2023/12/06 08:19:34;;;;;;;14.33;12.83;;;20.80;57.50;;;;;;4982320;28;20465;-57
2023/12/06 08:22:00;;;;;;;12.47;11.30;;;20.50;55.90;;;;;;4978583;28;20505;-61
2023/12/06 08:24:27;;;;;;;13.85;12.50;;;20.40;56.00;;;;;;4982657;28;20513;-63
2023/12/06 08:26:55;;;;;;;12.82;11.63;;;20.20;54.30;;;;;;4980098;28;20901;-62
2023/12/06 08:29:22;;;;;;;12.88;11.63;;;20.20;54.70;;;;;;4987373;28;20223;-62
2023/12/06 08:31:49;;;;;;;12.30;11.18;;;20.00;53.90;;;;;;4990996;28;20188;-60
2023/12/06 08:34:16;;;;;;;12.18;10.98;;;19.90;53.70;;;;;;4994422;28;20197;-62
2023/12/06 08:36:42;;;;;;;12.88;11.05;;;19.80;53.50;;;;;;4992215;28;20279;-61
2023/12/06 08:39:09;;;;;;;12.70;11.48;;;19.80;53.70;;;;;;4993399;28;20266;-56
2023/12/06 08:41:36;;;;;;;11.18;10.05;;;19.80;53.00;;;;;;4993820;28;20309;-63
2023/12/06 08:44:04;;;;;;;10.63;9.60;;;19.70;53.30;;;;;;4983599;28;21032;-66
2023/12/06 08:46:31;;;;;;;7.63;6.93;;;19.80;54.50;;;;;;4991002;28;20193;-66
2023/12/06 08:48:58;;;;;;;7.88;6.10;;;20.00;56.00;;;;;;4995932;28;20228;-66
2023/12/06 08:51:25;;;;;;;6.88;6.18;;;20.10;57.10;;;;;;4993379;28;20226;-65
2023/12/06 08:53:51;;;;;;;4.93;4.50;;;20.30;57.60;;;;;;4981460;28;20200;-65
2023/12/06 08:56:18;;;;;;;5.90;4.57;;;20.40;58.40;;;;;;4989322;28;20730;-63
2023/12/06 08:58:45;;;;;;;4.25;3.70;;;20.60;59.30;;;;;;4990447;28;20812;-63
2023/12/06 09:01:13;;;;;;;4.30;3.90;;;20.70;59.60;;;;;;4987546;28;20193;-63
2023/12/06 09:03:40;;;;;;;4.57;4.20;;;20.70;60.40;;;;;;4986610;28;20266;-63
2023/12/06 09:06:08;;;;;;;3.30;3.00;;;20.80;60.70;;;;;;4991976;28;20661;-63
2023/12/06 09:08:35;;;;;;;3.63;3.33;;;20.80;61.00;;;;;;4992166;28;20485;-63
2023/12/06 09:11:02;;;;;;;3.88;2.70;;;20.90;61.30;;;;;;4991298;28;20455;-63
2023/12/06 09:13:30;;;;;;;4.13;3.42;;;21.00;61.70;;;;;;4987619;28;20201;-63
2023/12/06 09:15:56;;;;;;;3.93;3.30;;;20.90;61.80;;;;;;4991219;28;20820;-63
2023/12/06 09:18:24;;;;;;;3.20;3.00;;;21.00;62.20;;;;;;4992904;28;20851;-61
2023/12/06 09:20:52;;;;;;;3.37;3.07;;;21.10;62.50;;;;;;4989751;28;20505;-60
2023/12/06 09:23:18;;;;;;;2.90;2.67;;;21.10;62.80;;;;;;4989340;28;20469;-60
2023/12/06 09:25:46;;;;;;;3.07;2.77;;;21.10;63.00;;;;;;4995220;28;20467;-61
2023/12/06 09:28:13;;;;;;;5.90;2.77;;;21.20;63.20;;;;;;4989678;28;20471;-60
2023/12/06 09:30:40;;;;;;;2.50;2.30;;;21.20;63.30;;;;;;4991596;28;20442;-60
2023/12/06 09:33:06;;;;;;;2.77;2.57;;;21.20;63.50;;;;;;4986650;28;20546;-62
2023/12/06 09:35:34;;;;;;;2.80;2.50;;;21.30;63.70;;;;;;4993029;28;20518;-63
2023/12/06 09:38:02;;;;;;;3.40;2.60;;;21.30;63.90;;;;;;4990905;28;21057;-63
2023/12/06 09:40:29;;;;;;;2.57;2.37;;;21.30;63.90;;;;;;4989773;28;20225;-63
2023/12/06 09:43:03;;;;;;;2.90;2.67;;;21.30;64.00;;;;;;4989081;28;20456;-63
2023/12/06 09:45:30;;;;;;;2.20;2.00;;;21.30;64.10;;;;;;4992445;28;20458;-63
2023/12/06 09:47:57;;;;;;;3.33;3.03;;;21.30;64.20;;;;;;4983853;28;21263;-63
2023/12/06 09:50:25;;;;;;;2.93;2.20;;;21.30;64.20;;;;;;4991111;28;20501;-63
2023/12/06 09:52:54;;;;;;;3.00;2.70;;;21.30;64.30;;;;;;4990641;28;21090;-63
2023/12/06 09:55:23;;;;;;;2.57;2.37;;;21.40;64.50;;;;;;4992253;28;21195;-63
2023/12/06 09:57:50;;;;;;;2.77;2.47;;;21.40;65.40;;;;;;4984466;28;20463;-61
2023/12/06 10:00:17;;;;;;;3.60;2.83;;;21.40;64.70;;;;;;4991353;28;20478;-61
2023/12/06 10:02:51;;;;;;;3.10;2.47;;;21.30;64.70;;;;;;4984713;28;20467;-61
2023/12/06 10:05:17;;;;;;;2.40;2.10;;;21.40;64.80;;;;;;4982249;28;20468;-60
2023/12/06 10:07:44;;;;;;;3.20;2.40;;;21.40;64.80;;;;;;4989852;28;20594;-61
2023/12/06 10:10:15;;;;;;;4.97;3.20;;;21.40;64.90;;;;;;4989923;28;20496;-64
2023/12/06 10:12:49;;;;;;;3.23;2.33;;;21.40;65.20;;;;;;4989981;28;20464;-62
2023/12/06 10:15:17;;;;;;;2.70;2.37;;;21.30;65.30;;;;;;4988656;28;20458;-62
2023/12/06 10:17:44;;;;;;;2.70;2.50;;;21.40;65.60;;;;;;4984888;28;20906;-60
2023/12/06 10:20:10;;;;;;;3.87;2.43;;;21.40;65.80;;;;;;4991404;28;20518;-64
2023/12/06 10:22:37;;;;;;;2.90;2.70;;;21.50;65.80;;;;;;4990401;28;20464;-67
2023/12/06 10:25:06;;;;;;;2.30;2.10;;;21.50;66.10;;;;;;4984332;28;20562;-68
2023/12/06 10:27:35;;;;;;;2.53;2.33;;;21.50;66.10;;;;;;4985004;28;20464;-67
2023/12/06 10:30:02;;;;;;;2.93;2.70;;;21.50;66.30;;;;;;4984362;28;20484;-59
2023/12/06 10:32:30;;;;;;;2.70;2.50;;;21.50;66.50;;;;;;4987092;28;20458;-61
2023/12/06 10:34:59;;;;;;;2.60;2.40;;;21.50;66.50;;;;;;4985738;28;20551;-62
2023/12/06 10:37:28;;;;;;;2.57;2.37;;;21.60;66.70;;;;;;4983757;28;20466;-61
2023/12/06 10:40:00;;;;;;;3.17;2.87;;;21.60;66.90;;;;;;4994259;28;20468;-59
2023/12/06 10:42:35;;;;;;;2.27;1.90;;;21.60;67.00;;;;;;4991187;28;20563;-60
2023/12/06 10:45:04;;;;;;;2.17;2.00;;;21.60;67.10;;;;;;4991480;28;20536;-58
2023/12/06 10:47:31;;;;;;;5.13;3.23;;;21.60;67.10;;;;;;4995226;28;20762;-64
2023/12/06 10:49:59;;;;;;;4.30;2.90;;;21.70;67.20;;;;;;4991384;28;20540;-60
2023/12/06 10:52:27;;;;;;;3.80;3.23;;;21.70;67.40;;;;;;4995687;28;20468;-60
2023/12/06 10:54:55;;;;;;;6.20;3.80;;;21.70;67.50;;;;;;4992772;28;20495;-61
2023/12/06 10:57:24;;;;;;;3.70;3.23;;;21.70;67.50;;;;;;4990307;28;20491;-63
2023/12/06 10:59:52;;;;;;;5.43;3.77;;;21.70;67.60;;;;;;4987876;28;20476;-65
2023/12/06 11:02:21;;;;;;;4.13;3.30;;;21.70;67.50;;;;;;4987332;28;21001;-61
2023/12/06 11:04:50;;;;;;;9.50;5.00;;;21.70;67.60;;;;;;4990229;28;20525;-62
2023/12/06 11:07:31;;;;;;;5.57;4.60;;;21.80;67.70;;;;;;4987273;28;20534;-63
2023/12/06 11:10:08;;;;;;;7.67;4.73;;;21.80;67.80;;;;;;4991347;28;20486;-64
2023/12/06 11:12:49;;;;;;;4.90;4.20;;;21.80;67.90;;;;;;4986166;28;20584;-63
2023/12/06 11:15:26;;;;;;;5.80;4.27;;;21.80;67.90;;;;;;4986364;28;20522;-57
2023/12/06 11:18:04;;;;;;;6.53;4.60;;;21.80;67.90;;;;;;4981681;28;21545;-58
2023/12/06 11:20:31;;;;;;;5.30;4.07;;;21.80;67.90;;;;;;4987625;28;20468;-59
2023/12/06 11:22:58;;;;;;;4.77;4.20;;;21.80;68.00;;;;;;4983826;28;20472;-59
2023/12/06 11:25:25;;;;;;;7.57;5.13;;;21.80;68.10;;;;;;4987927;28;20548;-60
2023/12/06 11:27:54;;;;;;;6.60;5.80;;;21.80;68.10;;;;;;4988914;28;20452;-61
2023/12/06 11:30:22;;;;;;;7.20;4.90;;;21.80;68.10;;;;;;4983585;28;20468;-59
2023/12/06 11:32:56;;;;;;;5.83;4.60;;;21.90;68.30;;;;;;4985884;28;20470;-56
2023/12/06 11:35:24;;;;;;;7.10;5.90;;;21.80;68.20;;;;;;4991082;28;20454;-55
2023/12/06 11:37:53;;;;;;;6.00;4.27;;;21.90;68.30;;;;;;4988436;28;21022;-62
2023/12/06 11:40:22;;;;;;;6.07;4.70;;;21.90;68.40;;;;;;4990032;28;20463;-62
2023/12/06 11:42:54;;;;;;;5.80;4.80;;;21.90;68.40;;;;;;4984291;28;20895;-62
2023/12/06 11:45:28;;;;;;;6.33;4.50;;;21.90;68.40;;;;;;4984939;28;20461;-57
2023/12/06 11:47:58;;;;;;;9.20;5.30;;;21.90;68.40;;;;;;4988768;28;20463;-59
2023/12/06 11:50:24;;;;;;;9.80;6.10;;;21.90;68.40;;;;;;4986545;28;20483;-61
2023/12/06 11:52:53;;;;;;;5.97;4.80;;;21.90;68.30;;;;;;4972951;28;20485;-64
2023/12/06 11:55:21;;;;;;;7.67;5.80;;;21.90;68.30;;;;;;4988386;28;20451;-63
2023/12/06 11:58:07;;;;;;;9.70;5.50;;;22.00;68.70;;;;;;4988780;28;20459;-66
2023/12/06 12:00:34;;;;;;;7.70;4.50;;;22.00;68.70;;;;;;4979550;28;20471;-67
2023/12/06 12:03:04;;;;;;;9.63;5.77;;;21.90;68.60;;;;;;4984394;28;20470;-66
2023/12/06 12:05:32;;;;;;;6.23;4.53;;;22.00;68.70;;;;;;4988611;28;20550;-63
2023/12/06 12:08:01;;;;;;;7.47;5.20;;;22.00;68.80;;;;;;4986923;28;20584;-62
2023/12/06 12:10:28;;;;;;;7.30;5.30;;;22.00;68.70;;;;;;4986162;28;20481;-60
2023/12/06 12:12:55;;;;;;;7.07;5.23;;;22.00;69.60;;;;;;4979853;28;20467;-58
2023/12/06 12:15:22;;;;;;;6.60;5.13;;;22.00;68.90;;;;;;4985314;28;20460;-60
2023/12/06 12:17:49;;;;;;;7.27;4.70;;;22.10;69.00;;;;;;4986507;28;20986;-64
2023/12/06 12:20:17;;;;;;;5.87;5.07;;;22.10;69.00;;;;;;4987808;28;20447;-62
2023/12/06 12:22:45;;;;;;;7.77;5.43;;;22.10;69.10;;;;;;4986246;28;21872;-62
2023/12/06 12:25:12;;;;;;;8.10;5.03;;;22.10;69.00;;;;;;4988934;28;23021;-65
2023/12/06 12:27:39;;;;;;;8.70;6.10;;;22.20;69.10;;;;;;4986314;28;20459;-60
2023/12/06 12:30:09;;;;;;;9.03;5.90;;;22.20;69.20;;;;;;4985035;28;20475;-63
2023/12/06 12:32:37;;;;;;;10.27;5.83;;;22.20;69.10;;;;;;4986799;28;20583;-64
2023/12/06 12:35:05;;;;;;;7.50;5.13;;;22.20;69.10;;;;;;4985012;28;20456;-59
2023/12/06 12:37:35;;;;;;;8.50;4.93;;;22.20;69.00;;;;;;4983140;28;20463;-61
2023/12/06 12:40:01;;;;;;;8.00;5.30;;;22.20;69.10;;;;;;4982332;28;20479;-61
2023/12/06 12:42:29;;;;;;;6.90;6.03;;;22.20;69.00;;;;;;4976227;28;20463;-60
2023/12/06 12:44:55;;;;;;;8.00;5.73;;;22.30;69.10;;;;;;4985692;28;20471;-64
2023/12/06 12:47:22;;;;;;;6.17;4.93;;;22.30;69.10;;;;;;4985587;28;20509;-63